West Olive, Michigan
Current Conditions -  °F | °C
As of 9:53 AM on Friday 19 Dec 2014 (Local Time) from KBIV Reporting Station
Clear Clear  
Wind Chill: 28°   Ceiling: Unl
Heat Index: 28°   Visibility: 10mi
Dew Point: 21°   Wind: 3mph
Humidity: 75%   Direction: 30°NNE
Pressure: 30.29"   Gusts: NA
Location:  42.92°N, 86.15°W
Report Text: KBIV 191453Z AUTO 03003KT 10SM CLR M02/M06 A3029 RMK AO2 SLP265 I3001 T10221061 51010
Loading
Personal Weather Stations






























Interactive Weather Map New forecast layout! Learn more

10-Day Weather Forecast

Advertisements
Track Severe Weather on mobile